sensor_id;sensor_type;location;lat;lon;timestamp;pressure;altitude;pressure_sealevel;temperature;humidity
43757;BME280;73222;41.866;12.462;2023-12-20T00:01:31;101409.84;;;6.72;100.00
43757;BME280;73222;41.866;12.462;2023-12-20T00:03:57;101404.50;;;6.66;100.00
43757;BME280;73222;41.866;12.462;2023-12-20T00:06:22;101405.47;;;6.70;100.00
43757;BME280;73222;41.866;12.462;2023-12-20T00:08:48;101400.31;;;6.70;100.00
43757;BME280;73222;41.866;12.462;2023-12-20T00:11:13;101393.91;;;6.57;100.00
43757;BME280;73222;41.866;12.462;2023-12-20T00:13:40;101399.78;;;6.53;100.00
43757;BME280;73222;41.866;12.462;2023-12-20T00:16:05;101392.06;;;6.53;100.00
43757;BME280;73222;41.866;12.462;2023-12-20T00:18:31;101400.50;;;6.49;100.00
43757;BME280;73222;41.866;12.462;2023-12-20T00:20:56;101388.56;;;6.51;100.00
43757;BME280;73222;41.866;12.462;2023-12-20T00:23:21;101390.22;;;6.49;100.00
43757;BME280;73222;41.866;12.462;2023-12-20T00:25:48;101380.75;;;6.48;100.00
43757;BME280;73222;41.866;12.462;2023-12-20T00:28:14;101385.81;;;6.44;100.00
43757;BME280;73222;41.866;12.462;2023-12-20T00:30:39;101384.81;;;6.41;100.00
43757;BME280;73222;41.866;12.462;2023-12-20T00:33:04;101376.22;;;6.40;100.00
43757;BME280;73222;41.866;12.462;2023-12-20T00:35:29;101376.13;;;6.37;100.00
43757;BME280;73222;41.866;12.462;2023-12-20T00:37:55;101371.06;;;6.40;100.00
43757;BME280;73222;41.866;12.462;2023-12-20T00:40:20;101360.69;;;6.37;100.00
43757;BME280;73222;41.866;12.462;2023-12-20T00:42:46;101358.06;;;6.36;100.00
43757;BME280;73222;41.866;12.462;2023-12-20T00:45:12;101354.72;;;6.38;100.00
43757;BME280;73222;41.866;12.462;2023-12-20T00:47:38;101357.03;;;6.30;100.00
43757;BME280;73222;41.866;12.462;2023-12-20T00:50:03;101355.34;;;6.31;100.00
43757;BME280;73222;41.866;12.462;2023-12-20T00:52:29;101357.00;;;6.29;100.00
43757;BME280;73222;41.866;12.462;2023-12-20T00:54:54;101349.59;;;6.38;100.00
43757;BME280;73222;41.866;12.462;2023-12-20T00:57:19;101343.41;;;6.33;100.00
43757;BME280;73222;41.866;12.462;2023-12-20T00:59:45;101346.72;;;6.29;100.00
43757;BME280;73222;41.866;12.462;2023-12-20T01:02:10;101343.09;;;6.24;100.00
43757;BME280;73222;41.866;12.462;2023-12-20T01:04:35;101341.56;;;6.29;100.00
43757;BME280;73222;41.866;12.462;2023-12-20T01:07:01;101339.91;;;6.31;100.00
43757;BME280;73222;41.866;12.462;2023-12-20T01:09:26;101339.91;;;6.31;100.00
43757;BME280;73222;41.866;12.462;2023-12-20T01:11:55;101338.06;;;6.27;100.00
43757;BME280;73222;41.866;12.462;2023-12-20T01:14:20;101323.50;;;6.27;100.00
43757;BME280;73222;41.866;12.462;2023-12-20T01:16:47;101320.84;;;6.24;100.00
43757;BME280;73222;41.866;12.462;2023-12-20T01:19:13;101320.88;;;6.26;100.00
43757;BME280;73222;41.866;12.462;2023-12-20T01:21:39;101318.22;;;6.23;100.00
43757;BME280;73222;41.866;12.462;2023-12-20T01:24:04;101301.75;;;6.17;100.00
43757;BME280;73222;41.866;12.462;2023-12-20T01:26:30;101317.91;;;6.13;100.00
43757;BME280;73222;41.866;12.462;2023-12-20T01:28:55;101317.94;;;6.15;100.00
43757;BME280;73222;41.866;12.462;2023-12-20T01:31:21;101312.03;;;6.17;100.00
43757;BME280;73222;41.866;12.462;2023-12-20T01:33:46;101317.31;;;6.21;100.00
43757;BME280;73222;41.866;12.462;2023-12-20T01:36:11;101309.53;;;6.19;100.00
43757;BME280;73222;41.866;12.462;2023-12-20T01:38:37;101305.25;;;6.19;100.00
43757;BME280;73222;41.866;12.462;2023-12-20T01:41:03;101307.03;;;6.21;100.00
43757;BME280;73222;41.866;12.462;2023-12-20T01:43:29;101301.88;;;6.21;100.00
43757;BME280;73222;41.866;12.462;2023-12-20T01:45:56;101288.91;;;6.17;100.00
43757;BME280;73222;41.866;12.462;2023-12-20T01:48:22;101290.75;;;6.22;100.00
43757;BME280;73222;41.866;12.462;2023-12-20T01:50:48;101296.53;;;6.14;100.00
43757;BME280;73222;41.866;12.462;2023-12-20T01:53:14;101291.47;;;6.17;100.00
43757;BME280;73222;41.866;12.462;2023-12-20T01:55:40;101300.84;;;6.15;100.00
43757;BME280;73222;41.866;12.462;2023-12-20T01:58:07;101295.69;;;6.15;100.00
43757;BME280;73222;41.866;12.462;2023-12-20T02:00:34;101293.13;;;6.15;100.00
43757;BME280;73222;41.866;12.462;2023-12-20T02:03:03;101286.09;;;6.10;100.00
43757;BME280;73222;41.866;12.462;2023-12-20T02:05:33;101280.56;;;5.99;100.00
43757;BME280;73222;41.866;12.462;2023-12-20T02:07:59;101284.94;;;6.01;100.00
43757;BME280;73222;41.866;12.462;2023-12-20T02:10:25;101275.53;;;6.02;100.00
43757;BME280;73222;41.866;12.462;2023-12-20T02:12:50;101268.78;;;6.04;100.00
43757;BME280;73222;41.866;12.462;2023-12-20T02:15:16;101265.25;;;6.02;100.00
43757;BME280;73222;41.866;12.462;2023-12-20T02:17:41;101264.22;;;5.97;100.00
43757;BME280;73222;41.866;12.462;2023-12-20T02:20:08;101258.13;;;5.95;100.00
43757;BME280;73222;41.866;12.462;2023-12-20T02:22:33;101248.75;;;5.95;100.00
43757;BME280;73222;41.866;12.462;2023-12-20T02:24:59;101249.50;;;5.93;100.00
43757;BME280;73222;41.866;12.462;2023-12-20T02:27:24;101246.72;;;5.86;100.00
43757;BME280;73222;41.866;12.462;2023-12-20T02:29:50;101239.13;;;5.89;100.00
43757;BME280;73222;41.866;12.462;2023-12-20T02:32:19;101235.75;;;5.90;100.00
43757;BME280;73222;41.866;12.462;2023-12-20T02:34:47;101230.59;;;5.90;100.00
43757;BME280;73222;41.866;12.462;2023-12-20T02:37:13;101225.34;;;5.87;100.00
43757;BME280;73222;41.866;12.462;2023-12-20T02:39:38;101220.19;;;5.87;100.00
43757;BME280;73222;41.866;12.462;2023-12-20T02:42:03;101217.47;;;5.83;100.00
43757;BME280;73222;41.866;12.462;2023-12-20T02:44:29;101223.50;;;5.83;100.00
43757;BME280;73222;41.866;12.462;2023-12-20T02:46:54;101220.84;;;5.80;100.00
43757;BME280;73222;41.866;12.462;2023-12-20T02:49:19;101225.16;;;5.81;100.00
43757;BME280;73222;41.866;12.462;2023-12-20T02:51:45;101214.00;;;5.81;100.00
43757;BME280;73222;41.866;12.462;2023-12-20T02:54:11;101205.25;;;5.75;100.00
43757;BME280;73222;41.866;12.462;2023-12-20T02:56:37;101202.66;;;5.74;100.00
43757;BME280;73222;41.866;12.462;2023-12-20T02:59:02;101202.53;;;5.71;100.00
43757;BME280;73222;41.866;12.462;2023-12-20T03:01:30;101193.84;;;5.67;100.00
43757;BME280;73222;41.866;12.462;2023-12-20T03:03:55;101187.78;;;5.65;100.00
43757;BME280;73222;41.866;12.462;2023-12-20T03:06:21;101190.22;;;5.60;100.00
43757;BME280;73222;41.866;12.462;2023-12-20T03:08:46;101188.38;;;5.56;100.00
43757;BME280;73222;41.866;12.462;2023-12-20T03:11:12;101190.06;;;5.56;100.00
43757;BME280;73222;41.866;12.462;2023-12-20T03:13:37;101185.75;;;5.55;100.00
43757;BME280;73222;41.866;12.462;2023-12-20T03:16:10;101186.28;;;5.46;100.00
43757;BME280;73222;41.866;12.462;2023-12-20T03:18:35;101186.19;;;5.43;100.00
43757;BME280;73222;41.866;12.462;2023-12-20T03:21:00;101178.34;;;5.38;100.00
43757;BME280;73222;41.866;12.462;2023-12-20T03:23:26;101183.34;;;5.35;100.00
43757;BME280;73222;41.866;12.462;2023-12-20T03:25:52;101185.75;;;5.30;100.00
43757;BME280;73222;41.866;12.462;2023-12-20T03:28:17;101184.91;;;5.30;100.00
43757;BME280;73222;41.866;12.462;2023-12-20T03:30:43;101180.59;;;5.29;100.00
43757;BME280;73222;41.866;12.462;2023-12-20T03:33:09;101175.31;;;5.24;100.00
43757;BME280;73222;41.866;12.462;2023-12-20T03:35:34;101176.94;;;5.22;100.00
43757;BME280;73222;41.866;12.462;2023-12-20T03:38:00;101168.31;;;5.20;100.00
43757;BME280;73222;41.866;12.462;2023-12-20T03:40:25;101171.69;;;5.19;100.00
43757;BME280;73222;41.866;12.462;2023-12-20T03:42:51;101169.94;;;5.18;100.00
43757;BME280;73222;41.866;12.462;2023-12-20T03:45:16;101165.50;;;5.12;100.00
43757;BME280;73222;41.866;12.462;2023-12-20T03:47:42;101166.34;;;5.13;100.00
43757;BME280;73222;41.866;12.462;2023-12-20T03:50:07;101164.50;;;5.08;100.00
43757;BME280;73222;41.866;12.462;2023-12-20T03:52:33;101168.09;;;5.14;100.00
43757;BME280;73222;41.866;12.462;2023-12-20T03:54:58;101156.84;;;5.10;100.00
43757;BME280;73222;41.866;12.462;2023-12-20T03:57:23;101160.97;;;5.06;100.00
43757;BME280;73222;41.866;12.462;2023-12-20T03:59:49;101156.97;;;5.13;100.00
43757;BME280;73222;41.866;12.462;2023-12-20T04:02:14;101149.09;;;5.08;100.00
43757;BME280;73222;41.866;12.462;2023-12-20T04:04:39;101150.03;;;5.11;100.00
43757;BME280;73222;41.866;12.462;2023-12-20T04:07:05;101138.16;;;5.14;100.00
43757;BME280;73222;41.866;12.462;2023-12-20T04:09:30;101138.84;;;5.08;100.00
43757;BME280;73222;41.866;12.462;2023-12-20T04:11:55;101133.72;;;5.10;100.00
43757;BME280;73222;41.866;12.462;2023-12-20T04:14:21;101129.41;;;5.07;100.00
43757;BME280;73222;41.866;12.462;2023-12-20T04:16:46;101127.47;;;5.02;100.00
43757;BME280;73222;41.866;12.462;2023-12-20T04:19:11;101134.31;;;5.01;100.00
43757;BME280;73222;41.866;12.462;2023-12-20T04:21:37;101130.09;;;5.03;100.00
43757;BME280;73222;41.866;12.462;2023-12-20T04:24:02;101121.56;;;5.04;100.00
43757;BME280;73222;41.866;12.462;2023-12-20T04:26:28;101120.72;;;5.04;100.00
43757;BME280;73222;41.866;12.462;2023-12-20T04:28:54;101116.66;;;5.11;100.00
43757;BME280;73222;41.866;12.462;2023-12-20T04:31:20;101116.56;;;5.07;100.00
43757;BME280;73222;41.866;12.462;2023-12-20T04:33:45;101120.00;;;5.08;100.00
43757;BME280;73222;41.866;12.462;2023-12-20T04:36:10;101113.06;;;5.05;100.00
43757;BME280;73222;41.866;12.462;2023-12-20T04:38:36;101110.47;;;5.05;100.00
43757;BME280;73222;41.866;12.462;2023-12-20T04:41:01;101114.75;;;5.05;100.00
43757;BME280;73222;41.866;12.462;2023-12-20T04:43:27;101120.88;;;5.08;100.00
43757;BME280;73222;41.866;12.462;2023-12-20T04:45:53;101119.16;;;5.09;100.00
43757;BME280;73222;41.866;12.462;2023-12-20T04:48:18;101118.19;;;5.05;100.00
43757;BME280;73222;41.866;12.462;2023-12-20T04:50:44;101116.56;;;5.07;100.00
43757;BME280;73222;41.866;12.462;2023-12-20T04:53:09;101122.56;;;5.08;100.00
43757;BME280;73222;41.866;12.462;2023-12-20T04:55:35;101126.09;;;5.12;100.00
43757;BME280;73222;41.866;12.462;2023-12-20T04:58:00;101120.97;;;5.12;100.00
43757;BME280;73222;41.866;12.462;2023-12-20T05:00:26;101114.16;;;5.12;100.00
43757;BME280;73222;41.866;12.462;2023-12-20T05:02:51;101115.75;;;5.08;100.00
43757;BME280;73222;41.866;12.462;2023-12-20T05:05:17;101116.56;;;5.07;100.00
43757;BME280;73222;41.866;12.462;2023-12-20T05:07:43;101113.06;;;5.05;100.00
43757;BME280;73222;41.866;12.462;2023-12-20T05:10:09;101108.03;;;5.08;100.00
43757;BME280;73222;41.866;12.462;2023-12-20T05:12:34;101109.66;;;5.06;100.00
43757;BME280;73222;41.866;12.462;2023-12-20T05:15:00;101106.84;;;4.99;100.00
43757;BME280;73222;41.866;12.462;2023-12-20T05:17:26;101112.72;;;4.96;100.00
43757;BME280;73222;41.866;12.462;2023-12-20T05:19:51;101113.63;;;4.97;100.00
43757;BME280;73222;41.866;12.462;2023-12-20T05:22:18;101109.25;;;4.94;100.00
43757;BME280;73222;41.866;12.462;2023-12-20T05:24:44;101104.81;;;4.90;100.00
43757;BME280;73222;41.866;12.462;2023-12-20T05:27:09;101106.56;;;4.91;100.00
43757;BME280;73222;41.866;12.462;2023-12-20T05:29:34;101116.81;;;4.91;100.00
43757;BME280;73222;41.866;12.462;2023-12-20T05:32:00;101119.44;;;4.92;100.00
43757;BME280;73222;41.866;12.462;2023-12-20T05:34:25;101119.75;;;5.00;100.00
43757;BME280;73222;41.866;12.462;2023-12-20T05:36:50;101109.41;;;4.99;100.00
43757;BME280;73222;41.866;12.462;2023-12-20T05:39:16;101106.09;;;5.01;100.00
43757;BME280;73222;41.866;12.462;2023-12-20T05:41:42;101103.66;;;5.06;100.00
43757;BME280;73222;41.866;12.462;2023-12-20T05:44:07;101102.91;;;5.08;100.00
43757;BME280;73222;41.866;12.462;2023-12-20T05:46:32;101097.78;;;5.08;100.00
43757;BME280;73222;41.866;12.462;2023-12-20T05:48:58;101110.75;;;5.13;100.00
43757;BME280;73222;41.866;12.462;2023-12-20T05:51:23;101098.78;;;5.14;100.00
43757;BME280;73222;41.866;12.462;2023-12-20T05:53:48;101098.09;;;5.18;100.00
43757;BME280;73222;41.866;12.462;2023-12-20T05:56:15;101088.59;;;5.15;100.00
43757;BME280;73222;41.866;12.462;2023-12-20T05:58:40;101082.56;;;5.15;100.00
43757;BME280;73222;41.866;12.462;2023-12-20T06:01:05;101083.38;;;5.14;100.00
43757;BME280;73222;41.866;12.462;2023-12-20T06:03:32;101088.44;;;5.11;100.00
43757;BME280;73222;41.866;12.462;2023-12-20T06:05:58;101086.69;;;5.09;100.00
43757;BME280;73222;41.866;12.462;2023-12-20T06:08:25;101087.59;;;5.12;100.00
43757;BME280;73222;41.866;12.462;2023-12-20T06:10:50;101095.22;;;5.08;100.00
43757;BME280;73222;41.866;12.462;2023-12-20T06:13:16;101089.13;;;5.06;100.00
43757;BME280;73222;41.866;12.462;2023-12-20T06:15:42;101090.91;;;5.07;100.00
43757;BME280;73222;41.866;12.462;2023-12-20T06:18:07;101080.28;;;4.98;100.00
43757;BME280;73222;41.866;12.462;2023-12-20T06:20:33;101085.56;;;5.01;100.00
43757;BME280;73222;41.866;12.462;2023-12-20T06:22:58;101089.84;;;5.02;100.00
43757;BME280;73222;41.866;12.462;2023-12-20T06:25:24;101083.00;;;5.03;100.00
43757;BME280;73222;41.866;12.462;2023-12-20T06:27:49;101080.41;;;5.01;100.00
43757;BME280;73222;41.866;12.462;2023-12-20T06:30:15;101077.78;;;5.00;100.00
43757;BME280;73222;41.866;12.462;2023-12-20T06:32:41;101080.25;;;4.97;100.00
43757;BME280;73222;41.866;12.462;2023-12-20T06:35:08;101071.59;;;4.93;100.00
43757;BME280;73222;41.866;12.462;2023-12-20T06:37:33;101069.06;;;4.94;100.00
43757;BME280;73222;41.866;12.462;2023-12-20T06:39:59;101066.47;;;4.93;100.00
43757;BME280;73222;41.866;12.462;2023-12-20T06:42:24;101058.16;;;5.00;100.00
43757;BME280;73222;41.866;12.462;2023-12-20T06:44:49;101048.03;;;5.05;100.00
43757;BME280;73222;41.866;12.462;2023-12-20T06:47:15;101051.66;;;5.12;100.00
43757;BME280;73222;41.866;12.462;2023-12-20T06:49:40;101043.28;;;5.16;100.00
43757;BME280;73222;41.866;12.462;2023-12-20T06:52:06;101035.81;;;5.23;100.00
43757;BME280;73222;41.866;12.462;2023-12-20T06:54:31;101030.75;;;5.27;100.00
43757;BME280;73222;41.866;12.462;2023-12-20T06:56:59;101030.69;;;5.51;100.00
43757;BME280;73222;41.866;12.462;2023-12-20T06:59:24;101022.16;;;5.52;100.00
43757;BME280;73222;41.866;12.462;2023-12-20T07:01:51;101026.56;;;5.56;100.00
43757;BME280;73222;41.866;12.462;2023-12-20T07:04:16;101022.63;;;5.68;100.00
43757;BME280;73222;41.866;12.462;2023-12-20T07:06:45;101015.38;;;5.83;100.00
43757;BME280;73222;41.866;12.462;2023-12-20T07:09:10;101014.81;;;5.94;100.00
43757;BME280;73222;41.866;12.462;2023-12-20T07:11:35;101015.28;;;6.09;100.00
43757;BME280;73222;41.866;12.462;2023-12-20T07:14:01;101017.88;;;6.09;100.00
43757;BME280;73222;41.866;12.462;2023-12-20T07:16:27;101011.88;;;6.10;100.00
43757;BME280;73222;41.866;12.462;2023-12-20T07:18:52;101023.91;;;6.11;100.00
43757;BME280;73222;41.866;12.462;2023-12-20T07:21:17;101011.59;;;6.30;100.00
43757;BME280;73222;41.866;12.462;2023-12-20T07:23:43;101015.28;;;6.40;100.00
43757;BME280;73222;41.866;12.462;2023-12-20T07:26:08;101012.16;;;6.50;100.00
43757;BME280;73222;41.866;12.462;2023-12-20T07:28:35;101012.44;;;6.61;100.00
43757;BME280;73222;41.866;12.462;2023-12-20T07:31:00;101013.41;;;6.66;100.00
43757;BME280;73222;41.866;12.462;2023-12-20T07:33:26;101019.75;;;6.79;100.00
43757;BME280;73222;41.866;12.462;2023-12-20T07:35:51;101015.53;;;6.83;100.00
43757;BME280;73222;41.866;12.462;2023-12-20T07:38:17;101021.88;;;6.96;100.00
43757;BME280;73222;41.866;12.462;2023-12-20T07:40:42;101019.13;;;6.88;100.00
43757;BME280;73222;41.866;12.462;2023-12-20T07:43:08;101020.06;;;6.92;100.00
43757;BME280;73222;41.866;12.462;2023-12-20T07:45:33;101014.19;;;6.97;100.00
43757;BME280;73222;41.866;12.462;2023-12-20T07:47:59;101015.88;;;6.95;100.00
43757;BME280;73222;41.866;12.462;2023-12-20T07:50:24;101004.13;;;7.07;100.00
43757;BME280;73222;41.866;12.462;2023-12-20T07:52:49;101016.09;;;7.05;100.00
43757;BME280;73222;41.866;12.462;2023-12-20T07:55:18;101004.13;;;7.07;100.00
43757;BME280;73222;41.866;12.462;2023-12-20T07:57:47;101009.22;;;7.04;100.00
43757;BME280;73222;41.866;12.462;2023-12-20T08:00:30;100999.81;;;7.06;100.00
43757;BME280;73222;41.866;12.462;2023-12-20T08:02:56;101006.03;;;7.14;100.00
43757;BME280;73222;41.866;12.462;2023-12-20T08:05:21;101002.50;;;7.47;100.00
43757;BME280;73222;41.866;12.462;2023-12-20T08:07:46;101000.69;;;7.81;100.00
43757;BME280;73222;41.866;12.462;2023-12-20T08:10:12;101000.44;;;8.12;100.00
43757;BME280;73222;41.866;12.462;2023-12-20T08:12:37;100999.09;;;8.33;100.00
43757;BME280;73222;41.866;12.462;2023-12-20T08:15:05;100998.19;;;8.29;100.00
43757;BME280;73222;41.866;12.462;2023-12-20T08:17:30;101001.94;;;8.45;100.00
43757;BME280;73222;41.866;12.462;2023-12-20T08:19:57;100995.56;;;8.71;100.00
43757;BME280;73222;41.866;12.462;2023-12-20T08:22:23;100991.25;;;8.71;100.00
43757;BME280;73222;41.866;12.462;2023-12-20T08:24:48;100983.97;;;9.01;100.00
43757;BME280;73222;41.866;12.462;2023-12-20T08:27:14;100987.72;;;9.20;100.00
43757;BME280;73222;41.866;12.462;2023-12-20T08:29:39;100988.91;;;9.41;100.00
43757;BME280;73222;41.866;12.462;2023-12-20T08:32:04;100989.97;;;9.54;100.00
43757;BME280;73222;41.866;12.462;2023-12-20T08:34:30;100984.66;;;9.44;100.00
43757;BME280;73222;41.866;12.462;2023-12-20T08:36:55;100986.75;;;9.73;100.00
43757;BME280;73222;41.866;12.462;2023-12-20T08:39:21;100982.56;;;9.80;100.00
43757;BME280;73222;41.866;12.462;2023-12-20T08:41:46;100977.59;;;9.97;100.00
43757;BME280;73222;41.866;12.462;2023-12-20T08:44:12;100976.72;;;9.97;100.00
43757;BME280;73222;41.866;12.462;2023-12-20T08:46:38;100990.38;;;9.85;100.00
43757;BME280;73222;41.866;12.462;2023-12-20T08:49:03;100982.09;;;10.14;100.00
43757;BME280;73222;41.866;12.462;2023-12-20T08:51:32;100981.13;;;10.04;100.00
43757;BME280;73222;41.866;12.462;2023-12-20T08:53:58;100984.69;;;10.12;100.00
43757;BME280;73222;41.866;12.462;2023-12-20T08:56:24;100981.97;;;10.04;100.00
43757;BME280;73222;41.866;12.462;2023-12-20T08:58:52;100986.16;;;9.93;100.00
43757;BME280;73222;41.866;12.462;2023-12-20T09:01:18;100984.69;;;10.12;100.00
43757;BME280;73222;41.866;12.462;2023-12-20T09:03:43;100982.19;;;10.22;100.00
43757;BME280;73222;41.866;12.462;2023-12-20T09:06:09;100985.94;;;10.47;100.00
43757;BME280;73222;41.866;12.462;2023-12-20T09:08:34;100985.91;;;10.44;100.00
43757;BME280;73222;41.866;12.462;2023-12-20T09:11:00;100979.97;;;11.71;100.00
43757;BME280;73222;41.866;12.462;2023-12-20T09:13:26;100979.28;;;12.15;100.00
43757;BME280;73222;41.866;12.462;2023-12-20T09:16:03;100983.53;;;11.98;100.00
43757;BME280;73222;41.866;12.462;2023-12-20T09:18:31;100967.00;;;11.74;100.00
43757;BME280;73222;41.866;12.462;2023-12-20T09:20:58;100972.91;;;11.48;100.00
43757;BME280;73222;41.866;12.462;2023-12-20T09:23:23;100976.59;;;11.96;100.00
43757;BME280;73222;41.866;12.462;2023-12-20T09:25:49;100967.00;;;11.72;100.00
43757;BME280;73222;41.866;12.462;2023-12-20T09:28:17;100962.63;;;11.63;100.00
43757;BME280;73222;41.866;12.462;2023-12-20T09:30:43;100959.47;;;12.45;100.00
43757;BME280;73222;41.866;12.462;2023-12-20T09:33:10;100962.94;;;13.16;100.00
43757;BME280;73222;41.866;12.462;2023-12-20T09:35:35;100954.28;;;12.52;100.00
43757;BME280;73222;41.866;12.462;2023-12-20T09:38:00;100951.63;;;12.22;100.00
43757;BME280;73222;41.866;12.462;2023-12-20T09:40:26;100943.03;;;12.49;100.00
43757;BME280;73222;41.866;12.462;2023-12-20T09:43:04;100945.50;;;13.68;100.00
43757;BME280;73222;41.866;12.462;2023-12-20T09:45:34;100941.97;;;15.88;100.00
43757;BME280;73222;41.866;12.462;2023-12-20T09:48:00;100939.09;;;17.20;81.32
43757;BME280;73222;41.866;12.462;2023-12-20T09:50:25;100937.16;;;16.79;81.21
43757;BME280;73222;41.866;12.462;2023-12-20T09:52:52;100935.94;;;17.00;79.34
43757;BME280;73222;41.866;12.462;2023-12-20T09:55:19;100938.97;;;16.19;85.35
43757;BME280;73222;41.866;12.462;2023-12-20T09:57:46;100927.88;;;16.04;86.41
43757;BME280;73222;41.866;12.462;2023-12-20T10:00:12;100930.31;;;15.43;91.79
43757;BME280;73222;41.866;12.462;2023-12-20T10:05:29;100923.88;;;15.74;92.98
43757;BME280;73222;41.866;12.462;2023-12-20T10:07:55;100920.94;;;15.25;94.23
43757;BME280;73222;41.866;12.462;2023-12-20T10:10:20;100912.22;;;15.29;95.13
43757;BME280;73222;41.866;12.462;2023-12-20T10:13:07;100913.31;;;15.08;98.68
43757;BME280;73222;41.866;12.462;2023-12-20T10:15:35;100908.44;;;14.74;100.00
43757;BME280;73222;41.866;12.462;2023-12-20T10:18:01;100900.66;;;16.19;94.13
43757;BME280;73222;41.866;12.462;2023-12-20T10:20:27;100901.25;;;18.91;66.79
43757;BME280;73222;41.866;12.462;2023-12-20T10:22:59;100895.94;;;20.44;52.48
43757;BME280;73222;41.866;12.462;2023-12-20T10:25:26;100904.00;;;20.92;48.14
43757;BME280;73222;41.866;12.462;2023-12-20T10:30:34;100898.97;;;22.50;40.53
43757;BME280;73222;41.866;12.462;2023-12-20T10:32:59;100895.81;;;22.40;39.17
43757;BME280;73222;41.866;12.462;2023-12-20T10:35:24;100890.88;;;21.16;43.69
43757;BME280;73222;41.866;12.462;2023-12-20T10:37:55;100895.00;;;21.95;42.61
43757;BME280;73222;41.866;12.462;2023-12-20T10:40:22;100890.81;;;22.98;37.85
43757;BME280;73222;41.866;12.462;2023-12-20T10:42:48;100886.22;;;24.53;35.66
43757;BME280;73222;41.866;12.462;2023-12-20T10:45:15;100889.34;;;22.04;39.21
43757;BME280;73222;41.866;12.462;2023-12-20T10:47:44;100881.06;;;20.70;49.55
43757;BME280;73222;41.866;12.462;2023-12-20T10:50:11;100876.81;;;21.41;47.30
43757;BME280;73222;41.866;12.462;2023-12-20T10:52:37;100874.19;;;21.41;45.56
43757;BME280;73222;41.866;12.462;2023-12-20T10:55:04;100873.19;;;20.16;53.52
43757;BME280;73222;41.866;12.462;2023-12-20T10:57:30;100857.88;;;21.79;48.02
43757;BME280;73222;41.866;12.462;2023-12-20T11:00:02;100858.50;;;21.38;47.61
43757;BME280;73222;41.866;12.462;2023-12-20T11:02:36;100849.31;;;21.00;52.81
43757;BME280;73222;41.866;12.462;2023-12-20T11:05:18;100840.03;;;20.39;58.77
43757;BME280;73222;41.866;12.462;2023-12-20T11:07:50;100830.13;;;21.22;55.22
43757;BME280;73222;41.866;12.462;2023-12-20T11:10:31;100838.44;;;23.84;42.34
43757;BME280;73222;41.866;12.462;2023-12-20T11:13:06;100849.06;;;25.24;37.68
43757;BME280;73222;41.866;12.462;2023-12-20T11:15:36;100820.47;;;22.76;43.54
43757;BME280;73222;41.866;12.462;2023-12-20T11:18:03;100814.94;;;22.61;47.76
43757;BME280;73222;41.866;12.462;2023-12-20T11:20:38;100811.25;;;22.24;50.20
43757;BME280;73222;41.866;12.462;2023-12-20T11:23:04;100798.59;;;21.67;51.83
43757;BME280;73222;41.866;12.462;2023-12-20T11:25:46;100800.50;;;20.93;60.29
43757;BME280;73222;41.866;12.462;2023-12-20T11:28:12;100805.28;;;22.19;54.58
43757;BME280;73222;41.866;12.462;2023-12-20T11:33:13;100787.50;;;23.98;43.49
43757;BME280;73222;41.866;12.462;2023-12-20T11:35:39;100784.25;;;24.64;44.08
43757;BME280;73222;41.866;12.462;2023-12-20T11:38:08;100786.75;;;25.17;39.64
43757;BME280;73222;41.866;12.462;2023-12-20T11:40:34;100793.38;;;26.79;36.90
43757;BME280;73222;41.866;12.462;2023-12-20T11:43:00;100780.84;;;26.81;36.95
43757;BME280;73222;41.866;12.462;2023-12-20T11:45:25;100779.28;;;24.58;43.46
43757;BME280;73222;41.866;12.462;2023-12-20T11:47:52;100780.13;;;23.51;56.95
43757;BME280;73222;41.866;12.462;2023-12-20T11:50:22;100781.16;;;23.10;60.94
43757;BME280;73222;41.866;12.462;2023-12-20T11:52:48;100781.50;;;22.83;63.11
43757;BME280;73222;41.866;12.462;2023-12-20T11:55:14;100775.06;;;22.28;63.27
43757;BME280;73222;41.866;12.462;2023-12-20T11:57:40;100782.53;;;20.79;74.67
43757;BME280;73222;41.866;12.462;2023-12-20T12:00:06;100771.41;;;20.22;86.43
43757;BME280;73222;41.866;12.462;2023-12-20T12:02:32;100767.34;;;19.84;94.46
43757;BME280;73222;41.866;12.462;2023-12-20T12:04:59;100752.31;;;20.42;91.42
43757;BME280;73222;41.866;12.462;2023-12-20T12:07:24;100755.00;;;22.84;70.63
43757;BME280;73222;41.866;12.462;2023-12-20T12:09:50;100752.81;;;21.69;76.69
43757;BME280;73222;41.866;12.462;2023-12-20T12:12:16;100747.78;;;22.69;66.48
43757;BME280;73222;41.866;12.462;2023-12-20T12:14:44;100742.09;;;24.43;54.03
43757;BME280;73222;41.866;12.462;2023-12-20T12:17:13;100735.78;;;25.44;46.04
43757;BME280;73222;41.866;12.462;2023-12-20T12:19:43;100733.44;;;25.23;47.67
43757;BME280;73222;41.866;12.462;2023-12-20T12:22:13;100721.22;;;24.21;49.91
43757;BME280;73222;41.866;12.462;2023-12-20T12:24:41;100727.09;;;25.09;45.76
43757;BME280;73222;41.866;12.462;2023-12-20T12:27:07;100728.00;;;24.42;51.57
43757;BME280;73222;41.866;12.462;2023-12-20T12:29:34;100717.53;;;23.88;52.79
43757;BME280;73222;41.866;12.462;2023-12-20T12:32:01;100711.00;;;23.60;55.66
43757;BME280;73222;41.866;12.462;2023-12-20T12:34:29;100718.34;;;24.75;47.73
43757;BME280;73222;41.866;12.462;2023-12-20T12:36:56;100707.78;;;25.40;47.86
43757;BME280;73222;41.866;12.462;2023-12-20T12:39:23;100708.59;;;25.40;44.81
43757;BME280;73222;41.866;12.462;2023-12-20T12:41:49;100707.47;;;26.36;41.90
43757;BME280;73222;41.866;12.462;2023-12-20T12:44:15;100702.06;;;26.23;41.18